sensor_id;sensor_type;location;lat;lon;timestamp;temperature;humidity
71206;SHT31;58935;54.498;18.544;2023-02-15T00:00:50;5.04;75.02
71206;SHT31;58935;54.498;18.544;2023-02-15T00:03:16;5.05;75.14
71206;SHT31;58935;54.498;18.544;2023-02-15T00:05:41;5.08;75.08
71206;SHT31;58935;54.498;18.544;2023-02-15T00:08:07;5.11;75.09
71206;SHT31;58935;54.498;18.544;2023-02-15T00:10:32;5.14;75.04
71206;SHT31;58935;54.498;18.544;2023-02-15T00:13:00;5.17;75.03
71206;SHT31;58935;54.498;18.544;2023-02-15T00:15:25;5.17;74.94
71206;SHT31;58935;54.498;18.544;2023-02-15T00:17:53;5.17;74.98
71206;SHT31;58935;54.498;18.544;2023-02-15T00:20:21;5.15;75.07
71206;SHT31;58935;54.498;18.544;2023-02-15T00:22:47;5.15;75.10
71206;SHT31;58935;54.498;18.544;2023-02-15T00:25:15;5.16;75.21
71206;SHT31;58935;54.498;18.544;2023-02-15T00:27:40;5.19;75.16
71206;SHT31;58935;54.498;18.544;2023-02-15T00:30:08;5.21;75.12
71206;SHT31;58935;54.498;18.544;2023-02-15T00:32:36;5.23;75.06
71206;SHT31;58935;54.498;18.544;2023-02-15T00:35:04;5.23;74.99
71206;SHT31;58935;54.498;18.544;2023-02-15T00:37:30;5.24;74.96
71206;SHT31;58935;54.498;18.544;2023-02-15T00:39:57;5.25;75.04
71206;SHT31;58935;54.498;18.544;2023-02-15T00:42:23;5.27;75.00
71206;SHT31;58935;54.498;18.544;2023-02-15T00:44:49;5.28;74.87
71206;SHT31;58935;54.498;18.544;2023-02-15T00:47:14;5.27;74.80
71206;SHT31;58935;54.498;18.544;2023-02-15T00:49:42;5.24;74.80
71206;SHT31;58935;54.498;18.544;2023-02-15T00:52:07;5.22;74.89
71206;SHT31;58935;54.498;18.544;2023-02-15T00:54:33;5.21;74.92
71206;SHT31;58935;54.498;18.544;2023-02-15T00:56:59;5.22;74.94
71206;SHT31;58935;54.498;18.544;2023-02-15T00:59:25;5.23;74.90
71206;SHT31;58935;54.498;18.544;2023-02-15T01:01:50;5.24;74.81
71206;SHT31;58935;54.498;18.544;2023-02-15T01:04:16;5.26;74.80
71206;SHT31;58935;54.498;18.544;2023-02-15T01:06:41;5.28;74.76
71206;SHT31;58935;54.498;18.544;2023-02-15T01:09:07;5.28;74.63
71206;SHT31;58935;54.498;18.544;2023-02-15T01:11:32;5.29;74.60
71206;SHT31;58935;54.498;18.544;2023-02-15T01:14:00;5.29;74.58
71206;SHT31;58935;54.498;18.544;2023-02-15T01:16:28;5.30;74.53
71206;SHT31;58935;54.498;18.544;2023-02-15T01:18:54;5.30;74.55
71206;SHT31;58935;54.498;18.544;2023-02-15T01:21:20;5.31;74.47
71206;SHT31;58935;54.498;18.544;2023-02-15T01:23:48;5.30;74.46
71206;SHT31;58935;54.498;18.544;2023-02-15T01:26:14;5.27;74.41
71206;SHT31;58935;54.498;18.544;2023-02-15T01:28:40;5.25;74.48
71206;SHT31;58935;54.498;18.544;2023-02-15T01:31:08;5.23;74.60
71206;SHT31;58935;54.498;18.544;2023-02-15T01:33:39;5.22;74.61
71206;SHT31;58935;54.498;18.544;2023-02-15T01:36:08;5.22;74.64
71206;SHT31;58935;54.498;18.544;2023-02-15T01:38:34;5.23;74.70
71206;SHT31;58935;54.498;18.544;2023-02-15T01:41:00;5.25;74.65
71206;SHT31;58935;54.498;18.544;2023-02-15T01:46:00;5.26;74.60
71206;SHT31;58935;54.498;18.544;2023-02-15T01:48:26;5.29;74.54
71206;SHT31;58935;54.498;18.544;2023-02-15T01:50:54;5.30;74.42
71206;SHT31;58935;54.498;18.544;2023-02-15T01:53:24;5.32;74.40
71206;SHT31;58935;54.498;18.544;2023-02-15T01:56:09;5.34;74.29
71206;SHT31;58935;54.498;18.544;2023-02-15T01:58:39;5.34;74.22
71206;SHT31;58935;54.498;18.544;2023-02-15T02:01:05;5.33;74.24
71206;SHT31;58935;54.498;18.544;2023-02-15T02:06:21;5.32;74.35
71206;SHT31;58935;54.498;18.544;2023-02-15T02:08:48;5.33;74.30
71206;SHT31;58935;54.498;18.544;2023-02-15T02:11:14;5.31;74.27
71206;SHT31;58935;54.498;18.544;2023-02-15T02:13:40;5.30;74.30
71206;SHT31;58935;54.498;18.544;2023-02-15T02:16:25;5.28;74.30
71206;SHT31;58935;54.498;18.544;2023-02-15T02:24:23;5.25;74.57
71206;SHT31;58935;54.498;18.544;2023-02-15T02:27:33;5.24;74.45
71206;SHT31;58935;54.498;18.544;2023-02-15T02:30:02;5.23;74.64
71206;SHT31;58935;54.498;18.544;2023-02-15T02:35:34;5.26;74.54
71206;SHT31;58935;54.498;18.544;2023-02-15T02:38:22;5.26;74.48
71206;SHT31;58935;54.498;18.544;2023-02-15T02:40:55;5.25;74.51
71206;SHT31;58935;54.498;18.544;2023-02-15T02:43:48;5.25;74.48
71206;SHT31;58935;54.498;18.544;2023-02-15T02:46:24;5.25;74.65
71206;SHT31;58935;54.498;18.544;2023-02-15T02:48:53;5.27;74.64
71206;SHT31;58935;54.498;18.544;2023-02-15T02:51:24;5.26;74.53
71206;SHT31;58935;54.498;18.544;2023-02-15T02:53:51;5.26;74.55
71206;SHT31;58935;54.498;18.544;2023-02-15T02:56:22;5.26;74.56
71206;SHT31;58935;54.498;18.544;2023-02-15T02:58:56;5.24;74.53
71206;SHT31;58935;54.498;18.544;2023-02-15T03:01:29;5.23;74.54
71206;SHT31;58935;54.498;18.544;2023-02-15T03:04:03;5.22;74.67
71206;SHT31;58935;54.498;18.544;2023-02-15T03:06:35;5.24;74.65
71206;SHT31;58935;54.498;18.544;2023-02-15T03:09:08;5.23;74.63
71206;SHT31;58935;54.498;18.544;2023-02-15T03:11:39;5.22;74.64
71206;SHT31;58935;54.498;18.544;2023-02-15T03:14:06;5.20;74.68
71206;SHT31;58935;54.498;18.544;2023-02-15T03:16:32;5.18;74.77
71206;SHT31;58935;54.498;18.544;2023-02-15T03:19:00;5.19;74.97
71206;SHT31;58935;54.498;18.544;2023-02-15T03:21:35;5.19;74.96
71206;SHT31;58935;54.498;18.544;2023-02-15T03:24:09;5.20;75.00
71206;SHT31;58935;54.498;18.544;2023-02-15T03:26:41;5.19;74.99
71206;SHT31;58935;54.498;18.544;2023-02-15T03:29:10;5.16;75.07
71206;SHT31;58935;54.498;18.544;2023-02-15T03:31:40;5.14;75.14
71206;SHT31;58935;54.498;18.544;2023-02-15T03:34:08;5.13;75.24
71206;SHT31;58935;54.498;18.544;2023-02-15T03:39:58;5.15;75.34
71206;SHT31;58935;54.498;18.544;2023-02-15T03:42:19;5.16;75.27
71206;SHT31;58935;54.498;18.544;2023-02-15T03:44:59;5.16;75.19
71206;SHT31;58935;54.498;18.544;2023-02-15T03:47:34;5.14;75.21
71206;SHT31;58935;54.498;18.544;2023-02-15T03:50:05;5.14;75.22
71206;SHT31;58935;54.498;18.544;2023-02-15T03:52:42;5.15;75.21
71206;SHT31;58935;54.498;18.544;2023-02-15T03:55:10;5.14;75.20
71206;SHT31;58935;54.498;18.544;2023-02-15T03:57:36;5.15;75.15
71206;SHT31;58935;54.498;18.544;2023-02-15T04:00:09;5.13;75.05
71206;SHT31;58935;54.498;18.544;2023-02-15T04:02:49;5.13;75.11
71206;SHT31;58935;54.498;18.544;2023-02-15T04:05:35;5.13;75.10
71206;SHT31;58935;54.498;18.544;2023-02-15T04:08:03;5.14;75.08
71206;SHT31;58935;54.498;18.544;2023-02-15T04:10:29;5.15;75.00
71206;SHT31;58935;54.498;18.544;2023-02-15T04:12:57;5.16;74.98
71206;SHT31;58935;54.498;18.544;2023-02-15T04:15:23;5.16;74.91
71206;SHT31;58935;54.498;18.544;2023-02-15T04:17:54;5.17;74.93
71206;SHT31;58935;54.498;18.544;2023-02-15T04:20:22;5.19;74.82
71206;SHT31;58935;54.498;18.544;2023-02-15T04:22:50;5.19;74.84
71206;SHT31;58935;54.498;18.544;2023-02-15T04:25:19;5.18;74.82
71206;SHT31;58935;54.498;18.544;2023-02-15T04:27:46;5.16;74.79
71206;SHT31;58935;54.498;18.544;2023-02-15T04:30:14;5.16;74.86
71206;SHT31;58935;54.498;18.544;2023-02-15T04:32:41;5.16;74.84
71206;SHT31;58935;54.498;18.544;2023-02-15T04:35:07;5.16;74.91
71206;SHT31;58935;54.498;18.544;2023-02-15T04:37:34;5.17;74.86
71206;SHT31;58935;54.498;18.544;2023-02-15T04:40:00;5.18;74.81
71206;SHT31;58935;54.498;18.544;2023-02-15T04:42:29;5.17;74.75
71206;SHT31;58935;54.498;18.544;2023-02-15T04:44:54;5.16;74.76
71206;SHT31;58935;54.498;18.544;2023-02-15T04:47:22;5.15;74.80
71206;SHT31;58935;54.498;18.544;2023-02-15T04:49:48;5.13;74.78
71206;SHT31;58935;54.498;18.544;2023-02-15T04:52:18;5.12;74.80
71206;SHT31;58935;54.498;18.544;2023-02-15T04:54:43;5.10;74.80
71206;SHT31;58935;54.498;18.544;2023-02-15T04:57:10;5.09;74.80
71206;SHT31;58935;54.498;18.544;2023-02-15T04:59:35;5.08;74.87
71206;SHT31;58935;54.498;18.544;2023-02-15T05:02:01;5.06;74.91
71206;SHT31;58935;54.498;18.544;2023-02-15T05:04:29;5.06;74.98
71206;SHT31;58935;54.498;18.544;2023-02-15T05:06:54;5.06;75.00
71206;SHT31;58935;54.498;18.544;2023-02-15T05:09:20;5.05;74.94
71206;SHT31;58935;54.498;18.544;2023-02-15T05:11:45;5.03;74.99
71206;SHT31;58935;54.498;18.544;2023-02-15T05:14:11;5.00;75.00
71206;SHT31;58935;54.498;18.544;2023-02-15T05:16:37;4.99;75.12
71206;SHT31;58935;54.498;18.544;2023-02-15T05:19:03;4.98;75.19
71206;SHT31;58935;54.498;18.544;2023-02-15T05:21:28;4.98;75.27
71206;SHT31;58935;54.498;18.544;2023-02-15T05:23:54;4.97;75.28
71206;SHT31;58935;54.498;18.544;2023-02-15T05:26:20;4.96;75.26
71206;SHT31;58935;54.498;18.544;2023-02-15T05:28:50;4.96;75.29
71206;SHT31;58935;54.498;18.544;2023-02-15T05:31:17;4.95;75.33
71206;SHT31;58935;54.498;18.544;2023-02-15T05:33:44;4.95;75.42
71206;SHT31;58935;54.498;18.544;2023-02-15T05:36:09;4.96;75.41
71206;SHT31;58935;54.498;18.544;2023-02-15T05:38:36;4.97;75.43
71206;SHT31;58935;54.498;18.544;2023-02-15T05:41:05;4.99;75.56
71206;SHT31;58935;54.498;18.544;2023-02-15T05:43:31;5.01;75.50
71206;SHT31;58935;54.498;18.544;2023-02-15T05:46:02;5.02;75.50
71206;SHT31;58935;54.498;18.544;2023-02-15T05:48:28;5.03;75.41
71206;SHT31;58935;54.498;18.544;2023-02-15T05:50:59;5.04;75.40
71206;SHT31;58935;54.498;18.544;2023-02-15T05:53:30;5.05;75.36
71206;SHT31;58935;54.498;18.544;2023-02-15T05:56:01;5.06;75.37
71206;SHT31;58935;54.498;18.544;2023-02-15T05:58:28;5.09;75.37
71206;SHT31;58935;54.498;18.544;2023-02-15T06:00:56;5.11;75.31
71206;SHT31;58935;54.498;18.544;2023-02-15T06:03:22;5.13;75.28
71206;SHT31;58935;54.498;18.544;2023-02-15T06:05:48;5.15;75.20
71206;SHT31;58935;54.498;18.544;2023-02-15T06:08:14;5.17;75.20
71206;SHT31;58935;54.498;18.544;2023-02-15T06:10:40;5.18;75.13
71206;SHT31;58935;54.498;18.544;2023-02-15T06:13:06;5.21;75.00
71206;SHT31;58935;54.498;18.544;2023-02-15T06:15:32;5.22;74.88
71206;SHT31;58935;54.498;18.544;2023-02-15T06:17:57;5.22;74.90
71206;SHT31;58935;54.498;18.544;2023-02-15T06:20:23;5.22;74.90
71206;SHT31;58935;54.498;18.544;2023-02-15T06:22:49;5.22;74.90
71206;SHT31;58935;54.498;18.544;2023-02-15T06:25:14;5.22;74.88
71206;SHT31;58935;54.498;18.544;2023-02-15T06:27:40;5.20;74.86
71206;SHT31;58935;54.498;18.544;2023-02-15T06:30:08;5.22;74.94
71206;SHT31;58935;54.498;18.544;2023-02-15T06:32:34;5.23;74.95
71206;SHT31;58935;54.498;18.544;2023-02-15T06:35:00;5.24;74.91
71206;SHT31;58935;54.498;18.544;2023-02-15T06:37:26;5.27;74.91
71206;SHT31;58935;54.498;18.544;2023-02-15T06:39:51;5.29;74.82
71206;SHT31;58935;54.498;18.544;2023-02-15T06:42:17;5.32;74.88
71206;SHT31;58935;54.498;18.544;2023-02-15T06:44:43;5.33;74.74
71206;SHT31;58935;54.498;18.544;2023-02-15T06:47:11;5.34;74.72
71206;SHT31;58935;54.498;18.544;2023-02-15T06:49:39;5.39;74.77
71206;SHT31;58935;54.498;18.544;2023-02-15T06:52:06;5.41;74.70
71206;SHT31;58935;54.498;18.544;2023-02-15T06:54:32;5.44;74.62
71206;SHT31;58935;54.498;18.544;2023-02-15T06:56:58;5.45;74.50
71206;SHT31;58935;54.498;18.544;2023-02-15T06:59:25;5.45;74.55
71206;SHT31;58935;54.498;18.544;2023-02-15T07:01:53;5.47;74.50
71206;SHT31;58935;54.498;18.544;2023-02-15T07:04:18;5.48;74.43
71206;SHT31;58935;54.498;18.544;2023-02-15T07:06:44;5.50;74.49
71206;SHT31;58935;54.498;18.544;2023-02-15T07:09:11;5.52;74.43
71206;SHT31;58935;54.498;18.544;2023-02-15T07:11:38;5.53;74.40
71206;SHT31;58935;54.498;18.544;2023-02-15T07:14:06;5.54;74.40
71206;SHT31;58935;54.498;18.544;2023-02-15T07:16:32;5.57;74.36
71206;SHT31;58935;54.498;18.544;2023-02-15T07:18:57;5.60;74.43
71206;SHT31;58935;54.498;18.544;2023-02-15T07:21:23;5.64;74.41
71206;SHT31;58935;54.498;18.544;2023-02-15T07:23:48;5.68;74.35
71206;SHT31;58935;54.498;18.544;2023-02-15T07:26:13;5.72;74.24
71206;SHT31;58935;54.498;18.544;2023-02-15T07:28:39;5.74;74.14
71206;SHT31;58935;54.498;18.544;2023-02-15T07:31:05;5.75;74.08
71206;SHT31;58935;54.498;18.544;2023-02-15T07:33:31;5.75;73.96
71206;SHT31;58935;54.498;18.544;2023-02-15T07:35:57;5.77;74.05
71206;SHT31;58935;54.498;18.544;2023-02-15T07:38:26;5.79;74.00
71206;SHT31;58935;54.498;18.544;2023-02-15T07:40:57;5.80;73.96
71206;SHT31;58935;54.498;18.544;2023-02-15T07:43:26;5.81;73.82
71206;SHT31;58935;54.498;18.544;2023-02-15T07:45:53;5.79;73.88
71206;SHT31;58935;54.498;18.544;2023-02-15T07:48:18;5.81;73.93
71206;SHT31;58935;54.498;18.544;2023-02-15T07:50:44;5.85;73.96
71206;SHT31;58935;54.498;18.544;2023-02-15T07:53:09;5.85;73.87
71206;SHT31;58935;54.498;18.544;2023-02-15T07:55:35;5.86;73.78
71206;SHT31;58935;54.498;18.544;2023-02-15T07:58:00;5.85;73.63
71206;SHT31;58935;54.498;18.544;2023-02-15T08:00:26;5.85;73.65
71206;SHT31;58935;54.498;18.544;2023-02-15T08:02:53;5.86;73.59
71206;SHT31;58935;54.498;18.544;2023-02-15T08:05:22;5.87;73.60
71206;SHT31;58935;54.498;18.544;2023-02-15T08:07:48;5.88;73.58
71206;SHT31;58935;54.498;18.544;2023-02-15T08:10:16;5.92;73.64
71206;SHT31;58935;54.498;18.544;2023-02-15T08:13:01;5.95;73.53
71206;SHT31;58935;54.498;18.544;2023-02-15T08:15:29;6.00;73.44
71206;SHT31;58935;54.498;18.544;2023-02-15T08:17:54;6.03;73.32
71206;SHT31;58935;54.498;18.544;2023-02-15T08:20:24;6.04;73.24
71206;SHT31;58935;54.498;18.544;2023-02-15T08:22:50;6.06;73.21
71206;SHT31;58935;54.498;18.544;2023-02-15T08:25:15;6.05;73.01
71206;SHT31;58935;54.498;18.544;2023-02-15T08:27:41;6.04;73.05
71206;SHT31;58935;54.498;18.544;2023-02-15T08:30:09;6.06;73.06
71206;SHT31;58935;54.498;18.544;2023-02-15T08:32:34;6.04;72.82
71206;SHT31;58935;54.498;18.544;2023-02-15T08:35:00;6.02;72.76
71206;SHT31;58935;54.498;18.544;2023-02-15T08:37:25;5.97;72.40
71206;SHT31;58935;54.498;18.544;2023-02-15T08:39:51;5.94;72.77
71206;SHT31;58935;54.498;18.544;2023-02-15T08:42:17;5.93;72.88
71206;SHT31;58935;54.498;18.544;2023-02-15T08:44:42;5.91;72.51
71206;SHT31;58935;54.498;18.544;2023-02-15T08:47:08;5.88;72.74
71206;SHT31;58935;54.498;18.544;2023-02-15T08:49:33;5.88;72.77
71206;SHT31;58935;54.498;18.544;2023-02-15T08:51:59;5.89;72.64
71206;SHT31;58935;54.498;18.544;2023-02-15T08:54:27;5.86;72.60
71206;SHT31;58935;54.498;18.544;2023-02-15T08:56:52;5.84;72.63
71206;SHT31;58935;54.498;18.544;2023-02-15T08:59:21;5.84;72.72
71206;SHT31;58935;54.498;18.544;2023-02-15T09:01:48;5.83;72.74
71206;SHT31;58935;54.498;18.544;2023-02-15T09:04:15;5.83;72.84
71206;SHT31;58935;54.498;18.544;2023-02-15T09:06:44;5.85;72.94
71206;SHT31;58935;54.498;18.544;2023-02-15T09:09:10;5.87;72.90
71206;SHT31;58935;54.498;18.544;2023-02-15T09:11:37;5.87;72.83
71206;SHT31;58935;54.498;18.544;2023-02-15T09:14:07;5.89;72.74
71206;SHT31;58935;54.498;18.544;2023-02-15T09:16:35;5.85;72.50
71206;SHT31;58935;54.498;18.544;2023-02-15T09:19:02;5.84;72.58
71206;SHT31;58935;54.498;18.544;2023-02-15T09:21:29;5.80;72.42
71206;SHT31;58935;54.498;18.544;2023-02-15T09:23:56;5.80;72.51
71206;SHT31;58935;54.498;18.544;2023-02-15T09:26:25;5.79;72.36
71206;SHT31;58935;54.498;18.544;2023-02-15T09:28:53;5.77;72.36
71206;SHT31;58935;54.498;18.544;2023-02-15T09:31:22;5.72;72.30
71206;SHT31;58935;54.498;18.544;2023-02-15T09:33:52;5.70;72.34
71206;SHT31;58935;54.498;18.544;2023-02-15T09:36:20;5.70;72.37
71206;SHT31;58935;54.498;18.544;2023-02-15T09:39:21;5.69;72.39
71206;SHT31;58935;54.498;18.544;2023-02-15T09:44:14;5.73;72.40
71206;SHT31;58935;54.498;18.544;2023-02-15T09:52:08;5.70;71.98
71206;SHT31;58935;54.498;18.544;2023-02-15T09:54:49;5.67;71.87
71206;SHT31;58935;54.498;18.544;2023-02-15T10:00:07;5.72;71.89
71206;SHT31;58935;54.498;18.544;2023-02-15T10:02:51;5.71;71.62
71206;SHT31;58935;54.498;18.544;2023-02-15T10:11:03;5.76;71.04
71206;SHT31;58935;54.498;18.544;2023-02-15T10:13:58;5.80;71.11
71206;SHT31;58935;54.498;18.544;2023-02-15T10:16:41;5.84;71.12
71206;SHT31;58935;54.498;18.544;2023-02-15T10:19:16;5.89;70.85
71206;SHT31;58935;54.498;18.544;2023-02-15T10:24:37;5.83;70.35
71206;SHT31;58935;54.498;18.544;2023-02-15T10:27:17;5.87;70.50
71206;SHT31;58935;54.498;18.544;2023-02-15T10:29:55;5.87;69.96
71206;SHT31;58935;54.498;18.544;2023-02-15T10:32:35;5.86;70.39
71206;SHT31;58935;54.498;18.544;2023-02-15T10:38:00;5.94;70.29
71206;SHT31;58935;54.498;18.544;2023-02-15T10:43:16;6.00;69.88
71206;SHT31;58935;54.498;18.544;2023-02-15T10:46:26;6.01;69.26
71206;SHT31;58935;54.498;18.544;2023-02-15T10:50:27;5.96;69.30
71206;SHT31;58935;54.498;18.544;2023-02-15T10:51:54;6.00;69.74
71206;SHT31;58935;54.498;18.544;2023-02-15T10:54:47;6.06;69.54
71206;SHT31;58935;54.498;18.544;2023-02-15T10:57:25;6.10;69.31
71206;SHT31;58935;54.498;18.544;2023-02-15T11:02:36;6.20;69.02
71206;SHT31;58935;54.498;18.544;2023-02-15T11:05:27;6.22;68.93
71206;SHT31;58935;54.498;18.544;2023-02-15T11:08:01;6.26;68.78
71206;SHT31;58935;54.498;18.544;2023-02-15T11:10:34;6.30;68.87
71206;SHT31;58935;54.498;18.544;2023-02-15T11:13:13;6.37;68.60
71206;SHT31;58935;54.498;18.544;2023-02-15T11:16:15;6.42;68.51
71206;SHT31;58935;54.498;18.544;2023-02-15T11:18:35;6.45;67.72
71206;SHT31;58935;54.498;18.544;2023-02-15T11:21:13;6.40;67.37
71206;SHT31;58935;54.498;18.544;2023-02-15T11:23:47;6.31;67.26
71206;SHT31;58935;54.498;18.544;2023-02-15T11:26:19;6.21;67.42
71206;SHT31;58935;54.498;18.544;2023-02-15T11:28:54;6.18;67.56
71206;SHT31;58935;54.498;18.544;2023-02-15T11:31:25;6.14;67.89
71206;SHT31;58935;54.498;18.544;2023-02-15T11:36:28;6.20;67.86
71206;SHT31;58935;54.498;18.544;2023-02-15T11:39:02;6.25;67.97
71206;SHT31;58935;54.498;18.544;2023-02-15T11:41:34;6.28;67.88
71206;SHT31;58935;54.498;18.544;2023-02-15T11:46:36;6.39;68.12
71206;SHT31;58935;54.498;18.544;2023-02-15T11:51:50;6.55;67.69
71206;SHT31;58935;54.498;18.544;2023-02-15T11:54:25;6.56;67.23
71206;SHT31;58935;54.498;18.544;2023-02-15T11:56:55;6.58;67.25
71206;SHT31;58935;54.498;18.544;2023-02-15T12:01:54;6.55;66.82
71206;SHT31;58935;54.498;18.544;2023-02-15T12:04:22;6.47;66.59
71206;SHT31;58935;54.498;18.544;2023-02-15T12:11:54;6.37;67.11
71206;SHT31;58935;54.498;18.544;2023-02-15T12:17:12;6.44;67.61
71206;SHT31;58935;54.498;18.544;2023-02-15T12:19:39;6.53;67.72
71206;SHT31;58935;54.498;18.544;2023-02-15T12:22:05;6.62;67.84
71206;SHT31;58935;54.498;18.544;2023-02-15T12:24:44;6.71;67.71
71206;SHT31;58935;54.498;18.544;2023-02-15T12:27:14;6.79;67.70
71206;SHT31;58935;54.498;18.544;2023-02-15T12:29:43;6.88;67.59
71206;SHT31;58935;54.498;18.544;2023-02-15T12:34:45;7.02;67.01
71206;SHT31;58935;54.498;18.544;2023-02-15T12:37:21;7.09;66.85
71206;SHT31;58935;54.498;18.544;2023-02-15T12:39:55;7.15;66.10
71206;SHT31;58935;54.498;18.544;2023-02-15T12:42:23;7.16;66.09
71206;SHT31;58935;54.498;18.544;2023-02-15T12:47:20;7.21;65.60
71206;SHT31;58935;54.498;18.544;2023-02-15T12:52:30;7.17;65.22
71206;SHT31;58935;54.498;18.544;2023-02-15T12:54:55;7.19;65.75
71206;SHT31;58935;54.498;18.544;2023-02-15T12:57:36;7.28;65.94
71206;SHT31;58935;54.498;18.544;2023-02-15T13:00:04;7.35;65.45
71206;SHT31;58935;54.498;18.544;2023-02-15T13:02:35;7.41;65.41
71206;SHT31;58935;54.498;18.544;2023-02-15T13:05:14;7.39;64.42
71206;SHT31;58935;54.498;18.544;2023-02-15T13:07:51;7.33;64.53
71206;SHT31;58935;54.498;18.544;2023-02-15T13:12:53;7.30;64.65
71206;SHT31;58935;54.498;18.544;2023-02-15T13:15:26;7.26;64.79
71206;SHT31;58935;54.498;18.544;2023-02-15T13:17:57;7.27;65.08
71206;SHT31;58935;54.498;18.544;2023-02-15T13:20:23;7.31;65.32
71206;SHT31;58935;54.498;18.544;2023-02-15T13:22:53;7.35;65.09
71206;SHT31;58935;54.498;18.544;2023-02-15T13:25:25;7.35;65.16
71206;SHT31;58935;54.498;18.544;2023-02-15T13:27:56;7.38;65.35
71206;SHT31;58935;54.498;18.544;2023-02-15T13:30:29;7.43;65.48
71206;SHT31;58935;54.498;18.544;2023-02-15T13:33:02;7.47;65.40
71206;SHT31;58935;54.498;18.544;2023-02-15T13:35:35;7.53;65.56
71206;SHT31;58935;54.498;18.544;2023-02-15T13:38:08;7.61;65.60
71206;SHT31;58935;54.498;18.544;2023-02-15T13:43:31;7.69;64.97
71206;SHT31;58935;54.498;18.544;2023-02-15T13:46:14;7.73;65.17
71206;SHT31;58935;54.498;18.544;2023-02-15T13:49:39;7.79;65.21
71206;SHT31;58935;54.498;18.544;2023-02-15T13:54:33;7.88;65.00
71206;SHT31;58935;54.498;18.544;2023-02-15T14:09:56;7.87;65.04
71206;SHT31;58935;54.498;18.544;2023-02-15T14:26:07;7.89;65.11
71206;SHT31;58935;54.498;18.544;2023-02-15T14:29:03;7.84;65.06
71206;SHT31;58935;54.498;18.544;2023-02-15T14:31:42;7.78;65.12
71206;SHT31;58935;54.498;18.544;2023-02-15T14:34:17;7.75;65.31
71206;SHT31;58935;54.498;18.544;2023-02-15T14:36:50;7.72;65.38
71206;SHT31;58935;54.498;18.544;2023-02-15T14:39:22;7.71;65.50
71206;SHT31;58935;54.498;18.544;2023-02-15T14:42:12;7.67;65.49
71206;SHT31;58935;54.498;18.544;2023-02-15T14:44:48;7.61;65.61
71206;SHT31;58935;54.498;18.544;2023-02-15T14:47:26;7.56;65.76
71206;SHT31;58935;54.498;18.544;2023-02-15T14:49:59;7.53;65.86
71206;SHT31;58935;54.498;18.544;2023-02-15T14:55:35;7.43;65.99
71206;SHT31;58935;54.498;18.544;2023-02-15T14:58:01;7.37;66.05
71206;SHT31;58935;54.498;18.544;2023-02-15T15:00:31;7.31;66.28
71206;SHT31;58935;54.498;18.544;2023-02-15T15:03:01;7.26;66.41
71206;SHT31;58935;54.498;18.544;2023-02-15T15:05:34;7.22;66.48
71206;SHT31;58935;54.498;18.544;2023-02-15T15:08:19;7.17;66.53
71206;SHT31;58935;54.498;18.544;2023-02-15T15:10:49;7.10;66.68
71206;SHT31;58935;54.498;18.544;2023-02-15T15:21:11;6.87;67.22
71206;SHT31;58935;54.498;18.544;2023-02-15T15:24:02;6.80;67.40
71206;SHT31;58935;54.498;18.544;2023-02-15T15:26:30;6.74;67.54
71206;SHT31;58935;54.498;18.544;2023-02-15T15:29:02;6.68;67.72
71206;SHT31;58935;54.498;18.544;2023-02-15T15:32:00;6.64;67.77
71206;SHT31;58935;54.498;18.544;2023-02-15T15:34:21;6.59;67.85
71206;SHT31;58935;54.498;18.544;2023-02-15T15:42:49;6.38;68.31
71206;SHT31;58935;54.498;18.544;2023-02-15T15:45:31;6.32;68.43
71206;SHT31;58935;54.498;18.544;2023-02-15T15:48:26;6.23;68.56
71206;SHT31;58935;54.498;18.544;2023-02-15T15:50:57;6.17;68.76
71206;SHT31;58935;54.498;18.544;2023-02-15T15:53:26;6.12;68.82
71206;SHT31;58935;54.498;18.544;2023-02-15T15:55:57;6.05;68.99
71206;SHT31;58935;54.498;18.544;2023-02-15T15:58:29;5.99;69.25
71206;SHT31;58935;54.498;18.544;2023-02-15T16:00:59;5.92;69.30
71206;SHT31;58935;54.498;18.544;2023-02-15T16:03:29;5.86;69.42
71206;SHT31;58935;54.498;18.544;2023-02-15T16:05:54;5.81;69.51
71206;SHT31;58935;54.498;18.544;2023-02-15T16:10:54;5.67;69.91
71206;SHT31;58935;54.498;18.544;2023-02-15T16:13:20;5.61;70.07
71206;SHT31;58935;54.498;18.544;2023-02-15T16:15:46;5.56;70.20
71206;SHT31;58935;54.498;18.544;2023-02-15T16:18:17;5.51;70.31
71206;SHT31;58935;54.498;18.544;2023-02-15T16:20:49;5.46;70.47
71206;SHT31;58935;54.498;18.544;2023-02-15T16:28:28;5.30;70.87
71206;SHT31;58935;54.498;18.544;2023-02-15T16:30:54;5.27;70.84
71206;SHT31;58935;54.498;18.544;2023-02-15T16:36:01;5.16;71.45
71206;SHT31;58935;54.498;18.544;2023-02-15T16:40:59;5.05;72.17
71206;SHT31;58935;54.498;18.544;2023-02-15T16:43:26;5.00;72.57
71206;SHT31;58935;54.498;18.544;2023-02-15T16:46:03;4.93;72.95
71206;SHT31;58935;54.498;18.544;2023-02-15T16:48:30;4.85;73.40
71206;SHT31;58935;54.498;18.544;2023-02-15T16:50:58;4.79;73.67
71206;SHT31;58935;54.498;18.544;2023-02-15T16:53:27;4.72;73.95
71206;SHT31;58935;54.498;18.544;2023-02-15T16:55:54;4.64;74.13
71206;SHT31;58935;54.498;18.544;2023-02-15T16:58:32;4.59;74.29
71206;SHT31;58935;54.498;18.544;2023-02-15T17:01:03;4.53;74.55
71206;SHT31;58935;54.498;18.544;2023-02-15T17:03:32;4.48;74.76
71206;SHT31;58935;54.498;18.544;2023-02-15T17:05:58;4.44;74.86
71206;SHT31;58935;54.498;18.544;2023-02-15T17:08:28;4.38;75.12
71206;SHT31;58935;54.498;18.544;2023-02-15T17:18:53;4.21;75.60
71206;SHT31;58935;54.498;18.544;2023-02-15T17:21:24;4.16;75.75
71206;SHT31;58935;54.498;18.544;2023-02-15T17:23:57;4.13;75.97
71206;SHT31;58935;54.498;18.544;2023-02-15T17:26:28;4.08;76.09
71206;SHT31;58935;54.498;18.544;2023-02-15T17:28:59;4.03;76.25
71206;SHT31;58935;54.498;18.544;2023-02-15T17:31:29;3.99;76.36
71206;SHT31;58935;54.498;18.544;2023-02-15T17:33:59;3.94;76.53
71206;SHT31;58935;54.498;18.544;2023-02-15T17:36:27;3.91;76.69
71206;SHT31;58935;54.498;18.544;2023-02-15T17:39:04;3.88;76.76
71206;SHT31;58935;54.498;18.544;2023-02-15T17:41:43;3.84;76.84
71206;SHT31;58935;54.498;18.544;2023-02-15T17:44:09;3.81;76.98
71206;SHT31;58935;54.498;18.544;2023-02-15T17:46:38;3.77;77.08
71206;SHT31;58935;54.498;18.544;2023-02-15T17:49:05;3.73;77.10
71206;SHT31;58935;54.498;18.544;2023-02-15T17:51:32;3.71;77.20
71206;SHT31;58935;54.498;18.544;2023-02-15T17:54:00;3.69;77.30
71206;SHT31;58935;54.498;18.544;2023-02-15T17:56:29;3.65;77.35
71206;SHT31;58935;54.498;18.544;2023-02-15T17:58:55;3.63;77.39
71206;SHT31;58935;54.498;18.544;2023-02-15T18:01:20;3.61;77.43
71206;SHT31;58935;54.498;18.544;2023-02-15T18:03:50;3.59;77.49
71206;SHT31;58935;54.498;18.544;2023-02-15T18:06:19;3.57;77.52
71206;SHT31;58935;54.498;18.544;2023-02-15T18:08:48;3.54;77.56
71206;SHT31;58935;54.498;18.544;2023-02-15T18:11:16;3.51;77.60